Time;durP1;ratioP1;P1;durP2;ratioP2;P2;SDS_P1;SDS_P2;PMS_P1;PMS_P2;Temp;Humidity;BMP_temperature;BMP_pressure;BME280_temperature;BME280_humidity;BME280_pressure;Samples;Min_cycle;Max_cycle;Signal;HPM_P1;HPM_P2
2022/05/08 00:00:48;;;;;;;21.55;12.57;;;;;;;22.20;44.35;102242.56;5035837;28;20053;-67
2022/05/08 00:03:14;;;;;;;19.45;11.23;;;;;;;22.18;43.71;102243.75;5018261;28;20022;-67
2022/05/08 00:05:39;;;;;;;21.67;10.40;;;;;;;22.16;44.06;102246.66;5035932;28;20017;-66
2022/05/08 00:08:05;;;;;;;18.83;9.65;;;;;;;22.12;43.86;102250.75;5035715;28;20026;-67
2022/05/08 00:10:30;;;;;;;17.48;9.88;;;;;;;22.10;44.15;102241.03;5035382;28;20016;-67
2022/05/08 00:12:56;;;;;;;17.85;9.95;;;;;;;22.07;44.55;102242.22;5034219;28;20087;-67
2022/05/08 00:15:21;;;;;;;17.55;9.63;;;;;;;22.04;43.57;102240.69;5035479;28;20075;-66
2022/05/08 00:17:46;;;;;;;14.52;8.60;;;;;;;22.00;43.86;102246.63;5018747;28;20030;-66
2022/05/08 00:20:13;;;;;;;17.35;8.98;;;;;;;21.97;43.99;102247.00;5017124;28;20554;-66
2022/05/08 00:22:45;;;;;;;14.27;9.32;;;;;;;21.97;43.93;102244.28;5017152;28;20030;-65
2022/05/08 00:25:11;;;;;;;16.42;8.82;;;;;;;21.94;43.65;102239.16;5029770;28;20033;-67
2022/05/08 00:27:36;;;;;;;13.32;8.63;;;;;;;21.92;44.34;102241.16;5016822;28;20113;-66
2022/05/08 00:30:02;;;;;;;15.45;8.57;;;;;;;21.89;43.47;102244.22;5016806;28;20055;-67
2022/05/08 00:32:28;;;;;;;13.32;8.35;;;;;;;21.86;44.16;102256.31;5025188;28;20549;-67
2022/05/08 00:34:53;;;;;;;16.20;8.52;;;;;;;21.83;43.87;102253.09;5035632;28;20108;-66
2022/05/08 00:37:18;;;;;;;12.43;7.70;;;;;;;21.81;44.00;102252.38;5036447;28;20029;-66
2022/05/08 00:39:44;;;;;;;15.38;7.28;;;;;;;21.80;44.33;102256.13;5036471;28;20021;-66
2022/05/08 00:42:09;;;;;;;15.15;8.13;;;;;;;21.79;44.07;102254.41;5033750;28;20017;-66
2022/05/08 00:44:35;;;;;;;15.02;7.90;;;;;;;21.75;44.51;102251.16;5035253;28;20025;-66
2022/05/08 00:47:00;;;;;;;12.52;7.13;;;;;;;21.72;43.92;102248.78;5037697;28;20037;-66
2022/05/08 00:49:25;;;;;;;14.88;7.55;;;;;;;21.71;44.57;102246.22;5037794;28;20052;-66
2022/05/08 00:51:51;;;;;;;11.05;6.40;;;;;;;21.70;43.97;102247.22;5037493;28;20061;-66
2022/05/08 00:54:16;;;;;;;11.15;6.75;;;;;;;21.66;43.94;102248.59;5032757;28;20040;-67
2022/05/08 00:56:42;;;;;;;7.80;5.78;;;;;;;21.63;43.69;102255.25;5034541;28;20486;-67
2022/05/08 00:59:08;;;;;;;9.57;5.95;;;;;;;21.61;43.96;102245.53;5032398;28;20013;-66
2022/05/08 01:01:34;;;;;;;11.73;6.43;;;;;;;21.58;43.51;102248.59;5026364;28;20032;-67
2022/05/08 01:03:59;;;;;;;10.25;5.95;;;;;;;21.56;44.14;102247.88;5037493;28;20402;-66
2022/05/08 01:06:26;;;;;;;8.18;4.93;;;;;;;21.56;43.56;102250.59;5032733;28;20104;-67
2022/05/08 01:08:51;;;;;;;13.98;6.20;;;;;;;21.55;44.46;102240.72;5038765;28;20096;-66
2022/05/08 01:11:17;;;;;;;9.88;5.75;;;;;;;21.53;43.80;102243.59;5017712;28;20204;-66
2022/05/08 01:13:44;;;;;;;10.15;4.40;;;;;;;21.53;44.26;102248.19;5023353;28;20021;-66
2022/05/08 01:16:11;;;;;;;9.32;4.97;;;;;;;21.52;43.94;102246.53;5036177;28;20498;-65
2022/05/08 01:18:37;;;;;;;7.40;4.60;;;;;;;21.51;43.75;102240.19;5035513;28;20025;-66
2022/05/08 01:21:03;;;;;;;10.30;4.28;;;;;;;21.50;43.72;102243.94;5022307;28;20101;-66
2022/05/08 01:23:29;;;;;;;9.77;4.28;;;;;;;21.48;44.23;102244.13;5021122;28;20049;-67
2022/05/08 01:25:55;;;;;;;6.63;3.78;;;;;;;21.46;44.33;102248.91;5035779;28;20032;-67
2022/05/08 01:28:22;;;;;;;7.97;3.55;;;;;;;21.46;44.17;102253.50;5000896;28;20025;-66
2022/05/08 01:30:49;;;;;;;8.18;4.00;;;;;;;21.45;43.79;102260.81;5018527;28;20018;-67
2022/05/08 01:33:15;;;;;;;7.80;3.58;;;;;;;21.44;44.31;102267.28;5023023;28;20034;-66
2022/05/08 01:35:42;;;;;;;6.05;3.65;;;;;;;21.44;44.00;102270.00;5035144;28;20028;-67
2022/05/08 01:38:08;;;;;;;6.38;3.53;;;;;;;21.43;43.46;102273.75;5022222;28;20029;-66
2022/05/08 01:40:34;;;;;;;7.93;3.80;;;;;;;21.44;42.98;102271.84;5018774;28;20022;-67
2022/05/08 01:42:59;;;;;;;5.45;3.70;;;;;;;21.42;43.96;102271.19;5036575;28;20032;-66
2022/05/08 01:45:25;;;;;;;4.78;3.28;;;;;;;21.43;43.71;102265.59;5036654;28;20029;-67
2022/05/08 01:50:36;;;;;;;9.35;3.67;;;;;;;21.41;43.29;102269.50;5036447;28;20079;-66
2022/05/08 01:53:01;;;;;;;7.93;3.25;;;;;;;21.38;43.98;102281.56;5024823;28;20423;-67
2022/05/08 01:55:27;;;;;;;6.03;3.03;;;;;;;21.37;43.62;102276.28;5036357;28;20033;-67
2022/05/08 01:57:53;;;;;;;5.45;2.92;;;;;;;21.34;43.50;102282.91;5020492;28;20484;-67
2022/05/08 02:00:19;;;;;;;7.03;2.92;;;;;;;21.32;43.74;102274.06;5036369;28;20143;-67
2022/05/08 02:02:48;;;;;;;5.25;2.95;;;;;;;21.34;43.55;102284.78;5035973;28;20553;-67
2022/05/08 02:05:14;;;;;;;8.07;3.78;;;;;;;21.34;43.44;102277.47;5026935;28;20068;-67
2022/05/08 02:07:39;;;;;;;7.93;3.00;;;;;;;21.34;43.27;102282.06;5016447;28;20427;-67
2022/05/08 02:10:05;;;;;;;4.00;2.60;;;;;;;21.32;43.62;102284.97;5034693;28;20049;-67
2022/05/08 02:12:31;;;;;;;8.55;3.20;;;;;;;21.29;43.68;102282.56;5032149;28;20018;-67
2022/05/08 02:14:56;;;;;;;10.40;3.67;;;;;;;21.28;43.49;102282.69;5037586;28;20028;-66
2022/05/08 02:17:22;;;;;;;5.10;2.55;;;;;;;21.25;43.73;102283.03;5037110;28;20053;-67
2022/05/08 02:19:48;;;;;;;6.63;3.03;;;;;;;21.20;42.70;102269.91;5025720;28;20017;-66
2022/05/08 02:22:13;;;;;;;4.70;3.03;;;;;;;21.20;43.19;102280.81;5021954;28;20025;-67
2022/05/08 02:24:38;;;;;;;9.38;3.25;;;;;;;21.20;43.21;102283.53;5033525;28;20026;-67
2022/05/08 02:27:04;;;;;;;7.93;4.22;;;;;;;21.21;43.30;102287.97;5018101;28;20103;-66
2022/05/08 02:29:30;;;;;;;9.52;3.72;;;;;;;21.21;42.82;102287.13;5027386;28;20029;-67
2022/05/08 02:31:55;;;;;;;4.10;2.70;;;;;;;21.20;42.83;102286.25;5033129;28;20024;-66
2022/05/08 02:34:20;;;;;;;7.28;3.28;;;;;;;21.19;43.00;102289.16;5020575;28;20101;-66
2022/05/08 02:36:46;;;;;;;5.70;2.38;;;;;;;21.19;43.47;102289.16;5037937;28;20471;-67
2022/05/08 02:39:12;;;;;;;10.70;3.33;;;;;;;21.17;43.47;102294.75;5036418;28;20482;-66
2022/05/08 02:41:37;;;;;;;6.70;2.83;;;;;;;21.16;43.33;102295.75;5036954;28;20079;-67
2022/05/08 02:44:02;;;;;;;6.97;3.70;;;;;;;21.13;43.50;102296.13;5037210;28;20020;-67
2022/05/08 02:46:28;;;;;;;6.53;3.83;;;;;;;21.12;43.01;102299.84;5037302;28;20600;-67
2022/05/08 02:48:53;;;;;;;6.50;3.72;;;;;;;21.09;43.59;102297.44;5019651;28;20046;-67
2022/05/08 02:51:18;;;;;;;5.85;3.00;;;;;;;21.06;43.01;102295.00;5037011;28;20045;-67
2022/05/08 02:53:44;;;;;;;6.07;3.40;;;;;;;21.05;43.45;102304.19;5037354;28;20053;-67
2022/05/08 02:58:53;;;;;;;8.82;4.32;;;;;;;21.00;43.08;102290.19;5035924;28;20060;-66
2022/05/08 03:01:18;;;;;;;11.02;5.30;;;;;;;20.98;43.54;102305.00;5036777;28;20490;-66
2022/05/08 03:03:44;;;;;;;8.52;4.25;;;;;;;20.97;43.30;102311.44;5031667;28;20075;-66
2022/05/08 03:06:09;;;;;;;6.03;3.95;;;;;;;20.95;43.76;102305.31;5034204;28;20050;-67
2022/05/08 03:08:35;;;;;;;8.27;4.30;;;;;;;20.93;43.29;102308.22;5022262;28;20018;-66
2022/05/08 03:13:44;;;;;;;6.53;3.55;;;;;;;20.90;43.37;102306.66;5035524;28;20029;-65
2022/05/08 03:16:11;;;;;;;11.23;5.35;;;;;;;20.89;43.67;102307.66;5033360;28;20034;-66
2022/05/08 03:18:39;;;;;;;7.93;3.85;;;;;;;20.88;43.27;102305.13;5038336;28;20021;-67
2022/05/08 03:21:05;;;;;;;10.15;4.30;;;;;;;20.86;43.26;102307.13;5034630;28;20027;-67
2022/05/08 03:23:30;;;;;;;10.20;4.82;;;;;;;20.85;43.84;102302.72;5022476;28;20227;-67
2022/05/08 03:25:56;;;;;;;12.73;5.10;;;;;;;20.82;43.35;102311.19;5040936;28;20537;-67
2022/05/08 03:28:21;;;;;;;7.32;4.28;;;;;;;20.80;43.47;102310.47;5039959;28;20029;-67
2022/05/08 03:30:47;;;;;;;6.88;4.20;;;;;;;20.77;43.70;102306.22;5041438;28;20027;-66
2022/05/08 03:33:12;;;;;;;8.45;4.70;;;;;;;20.76;43.54;102304.53;5021703;28;20494;-67
2022/05/08 03:35:39;;;;;;;11.75;4.20;;;;;;;20.75;43.44;102302.81;5020515;28;20025;-66
2022/05/08 03:38:05;;;;;;;10.43;5.10;;;;;;;20.73;42.94;102301.25;5029793;28;20021;-66
2022/05/08 03:40:32;;;;;;;10.40;5.72;;;;;;;20.70;43.42;102298.84;5040241;28;20029;-66
2022/05/08 03:42:58;;;;;;;11.70;5.65;;;;;;;20.67;43.48;102310.06;5040006;28;20032;-67
2022/05/08 03:45:24;;;;;;;10.13;5.57;;;;;;;20.65;43.73;102315.69;5021542;28;20026;-66
2022/05/08 03:47:51;;;;;;;10.00;5.30;;;;;;;20.63;43.57;102314.97;5019890;28;20517;-66
2022/05/08 03:50:17;;;;;;;12.70;5.43;;;;;;;20.61;43.43;102316.13;5002840;28;20026;-67
2022/05/08 03:52:42;;;;;;;10.40;5.80;;;;;;;20.58;43.45;102317.31;5020391;28;20100;-66
2022/05/08 03:55:08;;;;;;;12.65;5.97;;;;;;;20.55;43.81;102316.75;5031710;28;20097;-66
2022/05/08 03:57:33;;;;;;;10.45;5.38;;;;;;;20.53;43.68;102318.78;5036932;28;20045;-66
2022/05/08 03:59:59;;;;;;;11.40;4.65;;;;;;;20.53;43.93;102324.25;5028972;28;20470;-67
2022/05/08 04:02:24;;;;;;;10.38;5.53;;;;;;;20.51;43.75;102315.38;5029038;28;20029;-67
2022/05/08 04:04:49;;;;;;;8.55;5.63;;;;;;;20.51;43.77;102318.97;5039751;28;20024;-67
2022/05/08 04:07:15;;;;;;;9.65;5.28;;;;;;;20.51;43.57;102323.53;5040981;28;20024;-67
2022/05/08 04:09:40;;;;;;;16.05;6.25;;;;;;;20.51;43.68;102309.94;5041173;28;20039;-66
2022/05/08 04:12:06;;;;;;;11.57;6.22;;;;;;;20.51;43.74;102315.38;5022488;28;20080;-66
2022/05/08 04:14:31;;;;;;;9.40;5.75;;;;;;;20.51;43.81;102323.53;5042246;28;20382;-66
2022/05/08 04:16:56;;;;;;;14.95;5.85;;;;;;;20.52;43.71;102323.38;5042530;28;20028;-66
2022/05/08 04:19:22;;;;;;;8.40;6.20;;;;;;;20.52;43.55;102317.09;5026559;28;20053;-66
2022/05/08 04:21:47;;;;;;;12.52;5.55;;;;;;;20.51;43.80;102324.41;5022747;28;20045;-66
2022/05/08 04:24:18;;;;;;;18.33;6.70;;;;;;;20.51;43.90;102320.81;5042108;28;20025;-66
2022/05/08 04:26:44;;;;;;;13.73;6.35;;;;;;;20.51;44.16;102320.81;5042849;28;20470;-67
2022/05/08 04:29:09;;;;;;;12.25;6.82;;;;;;;20.51;43.60;102320.81;5041529;28;20029;-66
2022/05/08 04:31:35;;;;;;;10.60;6.18;;;;;;;20.49;43.97;102320.13;5041936;28;20478;-67
2022/05/08 04:34:01;;;;;;;11.82;5.85;;;;;;;20.51;43.89;102326.28;5035904;28;20371;-66
2022/05/08 04:36:26;;;;;;;11.55;6.28;;;;;;;20.49;43.98;102328.31;5041610;28;20032;-66
2022/05/08 04:38:52;;;;;;;13.75;6.32;;;;;;;20.48;44.13;102332.03;5040185;28;20051;-66
2022/05/08 04:41:18;;;;;;;18.30;7.25;;;;;;;20.47;43.73;102335.75;5023553;28;20037;-66
2022/05/08 04:43:43;;;;;;;12.50;6.22;;;;;;;20.45;44.00;102330.47;5041928;28;20032;-66
2022/05/08 04:46:10;;;;;;;14.43;6.97;;;;;;;20.43;44.22;102340.69;5041883;28;20164;-66
2022/05/08 04:48:36;;;;;;;10.27;6.95;;;;;;;20.42;43.77;102338.09;5041152;28;20042;-67
2022/05/08 04:51:01;;;;;;;11.65;6.70;;;;;;;20.39;44.18;102338.41;5042342;28;20454;-66
2022/05/08 04:53:26;;;;;;;12.82;6.57;;;;;;;20.40;43.76;102346.44;5042404;28;20373;-66
2022/05/08 04:55:52;;;;;;;12.82;7.15;;;;;;;20.40;43.30;102351.00;5032629;28;20022;-66
2022/05/08 04:58:17;;;;;;;11.00;7.25;;;;;;;20.39;43.87;102343.84;5022019;28;20026;-66
2022/05/08 05:00:43;;;;;;;16.02;7.28;;;;;;;20.38;43.59;102351.16;5023434;28;20104;-67
2022/05/08 05:03:08;;;;;;;12.43;7.20;;;;;;;20.37;43.52;102345.88;5041178;28;20360;-66
2022/05/08 05:05:34;;;;;;;14.60;6.80;;;;;;;20.36;43.86;102345.00;5042735;28;20076;-66
2022/05/08 05:07:59;;;;;;;14.52;8.00;;;;;;;20.39;44.07;102349.28;5043052;28;20017;-66
2022/05/08 05:10:25;;;;;;;15.75;6.55;;;;;;;20.40;43.67;102351.00;5030295;28;20010;-67
2022/05/08 05:12:52;;;;;;;13.60;6.70;;;;;;;20.40;44.08;102356.47;5022691;28;20024;-66
2022/05/08 05:15:18;;;;;;;11.70;6.40;;;;;;;20.41;43.46;102358.19;5022988;28;20075;-66
2022/05/08 05:17:43;;;;;;;15.35;6.55;;;;;;;20.43;43.83;102358.88;5042670;28;20025;-66
2022/05/08 05:20:09;;;;;;;13.57;6.35;;;;;;;20.43;43.66;102357.00;5033975;28;20024;-67
2022/05/08 05:22:35;;;;;;;13.52;6.25;;;;;;;20.46;43.40;102359.41;5042614;28;20036;-67
2022/05/08 05:25:02;;;;;;;10.57;5.72;;;;;;;20.47;43.56;102352.09;5042656;28;20079;-66
2022/05/08 05:27:27;;;;;;;15.38;6.03;;;;;;;20.48;43.38;102371.00;5042935;28;20036;-66
2022/05/08 05:29:53;;;;;;;12.10;5.90;;;;;;;20.49;43.75;102366.41;5032521;28;20442;-66
2022/05/08 05:32:18;;;;;;;9.75;6.00;;;;;;;20.52;43.58;102371.56;5022333;28;20105;-66
2022/05/08 05:34:43;;;;;;;11.82;6.47;;;;;;;20.57;43.86;102366.50;5040568;28;20013;-67
2022/05/08 05:37:09;;;;;;;14.38;6.72;;;;;;;20.64;43.42;102373.00;5040942;28;20061;-66
2022/05/08 05:39:34;;;;;;;11.25;6.53;;;;;;;20.71;43.56;102377.69;5039256;28;20053;-67
2022/05/08 05:42:00;;;;;;;14.73;6.70;;;;;;;20.77;43.70;102378.94;5042300;28;20020;-66
2022/05/08 05:44:26;;;;;;;13.27;6.70;;;;;;;20.81;43.55;102375.72;5032084;28;20420;-66
2022/05/08 05:49:38;;;;;;;12.85;6.25;;;;;;;20.86;42.91;102391.56;5023181;28;20029;-66
2022/05/08 05:52:05;;;;;;;12.30;6.35;;;;;;;20.86;42.84;102386.13;5024002;28;20021;-66
2022/05/08 05:54:31;;;;;;;12.63;6.95;;;;;;;20.87;43.07;102390.56;5022772;28;20017;-67
2022/05/08 05:56:56;;;;;;;17.17;7.88;;;;;;;20.91;43.18;102394.69;5022256;28;20029;-66
2022/05/08 05:59:21;;;;;;;13.57;7.72;;;;;;;20.92;43.12;102399.97;5023745;28;20029;-66
2022/05/08 06:01:48;;;;;;;16.92;7.88;;;;;;;20.94;43.20;102391.63;5022436;28;20100;-66
2022/05/08 06:04:13;;;;;;;18.30;7.75;;;;;;;21.00;43.05;102401.91;5021810;28;20053;-66
2022/05/08 06:06:39;;;;;;;14.25;7.85;;;;;;;20.99;43.56;102397.50;5022107;28;20057;-67
2022/05/08 06:09:04;;;;;;;14.43;6.97;;;;;;;20.98;43.20;102405.81;5023871;28;20020;-67
2022/05/08 06:11:29;;;;;;;16.83;7.97;;;;;;;20.97;43.00;102410.41;5022281;28;20366;-66
2022/05/08 06:13:55;;;;;;;13.48;7.28;;;;;;;20.98;43.19;102412.13;5022628;28;20013;-66
2022/05/08 06:16:20;;;;;;;16.85;8.15;;;;;;;20.97;43.08;102414.97;5023536;28;20108;-67
2022/05/08 06:18:45;;;;;;;14.63;8.18;;;;;;;21.00;42.86;102420.97;5022140;28;20060;-67
2022/05/08 06:21:11;;;;;;;14.55;7.70;;;;;;;21.01;43.28;102411.81;5022643;28;20029;-66
2022/05/08 06:23:36;;;;;;;13.77;7.60;;;;;;;21.02;42.61;102412.66;5023197;28;20100;-67
2022/05/08 06:26:02;;;;;;;14.13;7.70;;;;;;;21.06;43.30;102420.34;5021173;28;20101;-66
2022/05/08 06:28:28;;;;;;;12.88;8.32;;;;;;;21.11;42.79;102412.59;5005391;28;20033;-66
2022/05/08 06:30:54;;;;;;;18.00;8.45;;;;;;;21.19;42.78;102415.38;5022960;28;20022;-67
2022/05/08 06:33:20;;;;;;;14.75;7.70;;;;;;;21.23;42.65;102427.69;5021824;28;20501;-67
2022/05/08 06:35:45;;;;;;;11.52;7.30;;;;;;;21.32;42.42;102426.72;5024101;28;20076;-67
2022/05/08 06:38:11;;;;;;;21.67;8.57;;;;;;;21.40;42.57;102432.22;5023030;28;20029;-67
2022/05/08 06:40:39;;;;;;;13.98;7.68;;;;;;;21.50;41.87;102423.09;5022751;28;20387;-67
2022/05/08 06:43:08;;;;;;;14.85;8.05;;;;;;;21.60;42.15;102418.38;5023417;28;20430;-66
2022/05/08 06:45:34;;;;;;;12.73;7.07;;;;;;;21.73;42.09;102430.53;5022326;28;20020;-64
2022/05/08 06:47:59;;;;;;;13.93;7.43;;;;;;;21.98;41.66;102423.34;5023970;28;20125;-65
2022/05/08 06:50:25;;;;;;;13.85;7.32;;;;;;;22.10;41.27;102430.22;5016930;28;20018;-66
2022/05/08 06:52:50;;;;;;;16.48;7.90;;;;;;;22.16;42.09;102434.16;5015480;28;20032;-65
2022/05/08 06:55:16;;;;;;;15.23;8.38;;;;;;;22.27;41.75;102434.72;5018092;28;20029;-66
2022/05/08 06:57:42;;;;;;;13.38;8.15;;;;;;;22.37;41.88;102435.41;5017726;28;20026;-66
2022/05/08 07:02:52;;;;;;;15.15;8.73;;;;;;;22.58;41.65;102441.25;5017119;28;20072;-66
2022/05/08 07:05:17;;;;;;;15.43;8.77;;;;;;;22.65;41.55;102437.88;5017499;28;20026;-66
2022/05/08 07:07:43;;;;;;;16.98;9.90;;;;;;;22.74;41.33;102442.34;5016887;28;20021;-65
2022/05/08 07:10:08;;;;;;;16.20;8.77;;;;;;;22.83;41.24;102442.19;5017306;28;20057;-65
2022/05/08 07:12:37;;;;;;;13.93;8.85;;;;;;;22.92;41.01;102441.16;5017500;28;20033;-66
2022/05/08 07:15:03;;;;;;;14.38;8.48;;;;;;;22.98;39.95;102445.09;5017291;28;20033;-66
2022/05/08 07:17:29;;;;;;;16.65;7.85;;;;;;;22.97;40.61;102448.88;5017307;28;20021;-65
2022/05/08 07:19:55;;;;;;;14.80;8.57;;;;;;;22.94;40.72;102449.19;5017291;28;20405;-66
2022/05/08 07:22:21;;;;;;;12.80;7.22;;;;;;;22.95;40.52;102453.63;5017098;28;20026;-66
2022/05/08 07:24:46;;;;;;;14.80;7.78;;;;;;;22.96;39.89;102452.63;5020123;28;20044;-66
2022/05/08 07:27:12;;;;;;;13.60;7.15;;;;;;;23.01;39.60;102452.94;5037536;28;20370;-66
2022/05/08 07:29:41;;;;;;;13.68;6.95;;;;;;;23.06;39.91;102458.78;5037153;28;20390;-66
2022/05/08 07:32:07;;;;;;;12.60;6.32;;;;;;;23.11;39.19;102459.97;5037117;28;20071;-66
2022/05/08 07:37:16;;;;;;;11.18;6.18;;;;;;;23.26;39.40;102468.31;5037010;28;20132;-65
2022/05/08 07:39:41;;;;;;;12.82;6.22;;;;;;;23.43;39.48;102470.06;5036820;28;20061;-66
2022/05/08 07:42:07;;;;;;;12.18;6.53;;;;;;;23.55;39.39;102468.69;5036907;28;20025;-66
2022/05/08 07:44:32;;;;;;;10.88;6.38;;;;;;;23.78;38.97;102466.06;5037027;28;20037;-66
2022/05/08 07:46:58;;;;;;;12.57;6.20;;;;;;;23.83;38.59;102463.63;5036189;28;20050;-66
2022/05/08 07:49:24;;;;;;;13.02;6.65;;;;;;;23.99;38.77;102468.19;5036151;28;20112;-66
2022/05/08 07:51:49;;;;;;;14.57;6.50;;;;;;;24.11;38.32;102477.78;5036306;28;20505;-67
2022/05/08 07:54:15;;;;;;;11.70;6.35;;;;;;;24.45;37.78;102464.59;5037041;28;20487;-66
2022/05/08 07:56:40;;;;;;;15.18;7.20;;;;;;;24.58;38.40;102474.97;5036459;28;20475;-66
2022/05/08 07:59:05;;;;;;;13.02;7.05;;;;;;;24.53;38.53;102474.66;5037186;28;20028;-66
2022/05/08 08:01:31;;;;;;;11.10;6.25;;;;;;;24.45;38.13;102481.03;5036077;28;20029;-67
2022/05/08 08:03:56;;;;;;;12.60;5.85;;;;;;;24.36;38.49;102482.09;5035063;28;20100;-66
2022/05/08 08:06:21;;;;;;;12.25;6.50;;;;;;;24.30;38.13;102482.81;5036234;28;20064;-67
2022/05/08 08:08:47;;;;;;;13.73;6.47;;;;;;;24.51;37.26;102484.94;5036314;28;20123;-66
2022/05/08 08:11:13;;;;;;;10.05;5.72;;;;;;;24.90;36.91;102481.09;5036235;28;20028;-67
2022/05/08 08:13:38;;;;;;;13.35;6.28;;;;;;;25.28;36.81;102473.78;5036205;28;20036;-66
2022/05/08 08:16:04;;;;;;;17.40;6.00;;;;;;;25.64;36.52;102482.19;5036193;28;20391;-66
2022/05/08 08:18:30;;;;;;;11.50;5.80;;;;;;;25.89;36.52;102489.13;5035925;28;20035;-67
2022/05/08 08:20:55;;;;;;;10.30;5.80;;;;;;;26.18;35.92;102487.44;5035485;28;20102;-66
2022/05/08 08:23:22;;;;;;;7.55;5.40;;;;;;;26.25;36.06;102491.13;5035633;28;20033;-66
2022/05/08 08:25:47;;;;;;;13.85;5.47;;;;;;;26.48;36.02;102489.94;5035803;28;20360;-66
2022/05/08 08:28:12;;;;;;;11.32;4.97;;;;;;;26.81;35.41;102479.34;5035546;28;20033;-66
2022/05/08 08:30:38;;;;;;;10.07;4.90;;;;;;;27.09;35.50;102488.53;5035658;28;20490;-66
2022/05/08 08:33:03;;;;;;;10.15;5.47;;;;;;;27.34;34.59;102483.44;5050698;28;20025;-65
2022/05/08 08:35:28;;;;;;;7.95;4.22;;;;;;;27.58;34.73;102484.94;5035770;28;20041;-66
2022/05/08 08:37:54;;;;;;;10.63;4.13;;;;;;;27.83;33.82;102488.94;5035639;28;20032;-66
2022/05/08 08:40:20;;;;;;;8.75;3.92;;;;;;;28.05;33.43;102485.06;5035068;28;20022;-66
2022/05/08 08:42:46;;;;;;;9.10;3.15;;;;;;;28.27;33.75;102489.41;5035915;28;20441;-65
2022/05/08 08:48:06;;;;;;;10.60;3.25;;;;;;;28.76;31.83;102480.06;5035148;28;20140;-64
2022/05/08 08:50:33;;;;;;;11.00;3.03;;;;;;;28.94;31.87;102480.31;5035694;28;20029;-66
2022/05/08 08:53:00;;;;;;;6.32;3.75;;;;;;;29.17;31.67;102474.41;5035372;28;20116;-66
2022/05/08 08:55:26;;;;;;;9.70;3.00;;;;;;;29.36;32.10;102471.66;5017848;28;20497;-66
2022/05/08 08:57:52;;;;;;;8.48;3.25;;;;;;;29.55;31.27;102478.22;5035080;28;20074;-65
2022/05/08 09:00:18;;;;;;;8.15;3.28;;;;;;;29.72;31.53;102473.97;5034895;28;20052;-66
2022/05/08 09:02:44;;;;;;;11.55;3.40;;;;;;;29.87;31.01;102473.75;5034977;28;20037;-66
2022/05/08 09:05:10;;;;;;;9.13;2.83;;;;;;;30.02;30.42;102471.56;5034524;28;20103;-67
2022/05/08 09:07:44;;;;;;;9.07;3.05;;;;;;;30.18;29.85;102473.03;5034647;28;20072;-68
2022/05/08 09:10:18;;;;;;;13.82;3.55;;;;;;;30.32;30.25;102469.13;5034346;28;20108;-66
2022/05/08 09:13:01;;;;;;;12.15;3.58;;;;;;;30.51;29.91;102469.03;5034319;28;20036;-66
2022/05/08 09:15:29;;;;;;;10.13;3.28;;;;;;;30.67;29.62;102472.38;5034160;28;20463;-66
2022/05/08 09:17:59;;;;;;;13.57;3.20;;;;;;;30.75;29.17;102469.34;5034232;28;20037;-66
2022/05/08 09:20:26;;;;;;;9.30;2.92;;;;;;;30.80;29.33;102477.81;5034119;28;20053;-66
2022/05/08 09:23:04;;;;;;;10.45;2.90;;;;;;;30.93;28.89;102477.78;5034151;28;20031;-66
2022/05/08 09:25:54;;;;;;;10.55;3.22;;;;;;;31.05;28.76;102470.44;5033926;28;20043;-66
2022/05/08 09:28:20;;;;;;;17.83;2.97;;;;;;;31.13;29.17;102475.69;5034039;28;20021;-66
2022/05/08 09:30:55;;;;;;;8.07;2.75;;;;;;;31.22;28.39;102477.09;5034175;28;20029;-66
2022/05/08 09:33:23;;;;;;;10.35;2.53;;;;;;;31.33;28.42;102473.59;5033774;28;20102;-66
2022/05/08 09:35:48;;;;;;;12.52;3.63;;;;;;;31.43;28.32;102467.56;5033836;28;20036;-66
2022/05/08 09:38:13;;;;;;;8.30;2.40;;;;;;;31.56;28.35;102473.00;5034173;28;20030;-66
2022/05/08 09:40:39;;;;;;;7.13;2.70;;;;;;;31.70;28.22;102472.66;5033736;28;20036;-65
2022/05/08 09:43:05;;;;;;;7.13;2.83;;;;;;;31.83;27.87;102473.59;5033795;28;20390;-64
2022/05/08 09:45:30;;;;;;;14.18;2.95;;;;;;;31.93;28.25;102468.34;5033786;28;20375;-66
2022/05/08 09:47:57;;;;;;;10.68;3.10;;;;;;;32.07;27.61;102472.69;5033689;28;20045;-65
2022/05/08 09:50:22;;;;;;;9.55;2.78;;;;;;;32.24;27.16;102477.41;5034097;28;20104;-66
2022/05/08 09:52:47;;;;;;;10.15;2.97;;;;;;;32.55;27.23;102472.75;5033838;28;20096;-66
2022/05/08 09:55:14;;;;;;;7.28;3.80;;;;;;;33.01;26.80;102461.78;5033874;28;20542;-65
2022/05/08 09:57:40;;;;;;;10.43;4.07;;;;;;;33.61;27.01;102462.53;5025517;28;20037;-66
2022/05/08 10:00:07;;;;;;;9.77;3.25;;;;;;;34.33;25.77;102465.78;5014298;28;20018;-65
2022/05/08 10:02:32;;;;;;;7.47;3.25;;;;;;;35.43;24.01;102460.63;5014114;28;20030;-66
2022/05/08 10:04:58;;;;;;;5.95;2.45;;;;;;;36.39;23.21;102475.94;5028924;28;20372;-66
2022/05/08 10:07:24;;;;;;;7.25;2.78;;;;;;;36.24;23.14;102461.81;5013979;28;20105;-66
2022/05/08 10:15:37;;;;;;;5.30;2.45;;;;;;;35.03;24.65;102467.19;4961697;28;20142;-66
2022/05/08 10:18:21;;;;;;;9.48;2.10;;;;;;;34.97;24.95;102465.41;4972413;28;20542;-65
2022/05/08 10:21:07;;;;;;;7.13;2.22;;;;;;;35.03;23.70;102456.03;4996555;28;20457;-66
2022/05/08 10:23:43;;;;;;;6.45;1.85;;;;;;;35.10;24.26;102467.03;5013657;28;20034;-65
2022/05/08 10:26:29;;;;;;;4.95;1.95;;;;;;;35.24;23.10;102467.53;5028337;28;20372;-66
2022/05/08 10:29:03;;;;;;;9.25;2.65;;;;;;;35.35;23.41;102458.22;5033118;28;20030;-66
2022/05/08 10:31:43;;;;;;;8.30;2.25;;;;;;;35.47;23.67;102464.56;5033138;28;20025;-66
2022/05/08 10:34:10;;;;;;;9.80;2.15;;;;;;;35.60;22.78;102473.44;5033353;28;20034;-66
2022/05/08 10:36:36;;;;;;;12.48;2.88;;;;;;;35.76;23.06;102470.91;5033388;28;20079;-66
2022/05/08 10:39:37;;;;;;;6.43;2.08;;;;;;;35.96;22.40;102455.28;5033380;28;20426;-66
2022/05/08 10:42:02;;;;;;;6.45;2.50;;;;;;;36.09;22.69;102454.09;5033151;28;20044;-66
2022/05/08 10:44:40;;;;;;;5.47;2.15;;;;;;;36.27;22.02;102452.91;5033039;28;20029;-66
2022/05/08 10:47:33;;;;;;;9.20;2.22;;;;;;;36.46;22.10;102455.06;5033162;28;20041;-66
2022/05/08 10:50:10;;;;;;;10.45;2.20;;;;;;;36.63;21.84;102446.66;5033403;28;20371;-66
2022/05/08 10:52:39;;;;;;;4.57;1.63;;;;;;;36.78;21.44;102446.78;5033225;28;20022;-66
2022/05/08 10:55:08;;;;;;;8.35;1.80;;;;;;;36.91;21.55;102439.94;5032853;28;20107;-66
2022/05/08 10:57:37;;;;;;;5.78;1.67;;;;;;;37.05;21.12;102425.25;5033260;28;20021;-68
2022/05/08 11:00:07;;;;;;;12.32;1.80;;;;;;;37.14;21.06;102429.25;5032891;28;20026;-67
2022/05/08 11:02:43;;;;;;;5.18;2.17;;;;;;;37.28;20.74;102427.69;5033217;28;20036;-66
2022/05/08 11:05:10;;;;;;;5.22;1.42;;;;;;;37.43;20.21;102432.59;5032963;28;20048;-67
2022/05/08 11:07:40;;;;;;;8.80;2.20;;;;;;;37.54;20.34;102427.88;5032683;28;20079;-67
2022/05/08 11:10:15;;;;;;;6.22;2.38;;;;;;;37.62;20.17;102425.41;5032727;28;20018;-67
2022/05/08 11:13:01;;;;;;;10.60;1.83;;;;;;;37.68;20.00;102420.69;5032440;28;20028;-67
2022/05/08 11:15:31;;;;;;;6.65;1.67;;;;;;;37.69;20.06;102422.38;5014983;28;20029;-67
2022/05/08 11:18:09;;;;;;;8.70;2.25;;;;;;;37.77;19.41;102427.47;5012892;28;20030;-66
2022/05/08 11:20:45;;;;;;;5.55;1.42;;;;;;;37.85;19.32;102418.56;5014506;28;20057;-67
2022/05/08 11:23:12;;;;;;;5.78;1.60;;;;;;;37.88;19.78;102418.03;5031391;28;20029;-66
2022/05/08 11:25:38;;;;;;;5.40;1.77;;;;;;;37.95;20.05;102412.16;5032057;28;20040;-66
2022/05/08 11:28:03;;;;;;;4.20;1.50;;;;;;;38.03;19.79;102420.03;5032737;28;20475;-66
2022/05/08 11:30:34;;;;;;;5.13;1.75;;;;;;;38.07;19.93;102418.38;5032145;28;20029;-67
2022/05/08 11:36:04;;;;;;;6.60;2.40;;;;;;;38.10;19.68;102403.84;5032607;28;20109;-66
2022/05/08 11:38:45;;;;;;;4.78;1.70;;;;;;;38.06;19.42;102420.34;5033431;28;20108;-66
2022/05/08 11:41:21;;;;;;;7.80;1.80;;;;;;;38.11;19.16;102416.72;5018631;28;20033;-65
2022/05/08 11:43:49;;;;;;;4.88;1.75;;;;;;;38.12;19.36;102402.44;5036098;28;20083;-67
2022/05/08 11:46:16;;;;;;;8.70;1.92;;;;;;;38.15;18.78;102401.03;5036111;28;20109;-66